sensor_id;sensor_type;location;lat;lon;timestamp;P1;durP1;ratioP1;P2;durP2;ratioP2
36355;SDS011;22384;54.302;18.596;2023-07-20T00:01:21;5.68;;;1.98;;
36355;SDS011;22384;54.302;18.596;2023-07-20T00:03:47;5.57;;;2.08;;
36355;SDS011;22384;54.302;18.596;2023-07-20T00:06:19;3.55;;;1.95;;
36355;SDS011;22384;54.302;18.596;2023-07-20T00:08:45;7.50;;;2.38;;
36355;SDS011;22384;54.302;18.596;2023-07-20T00:11:11;5.50;;;2.03;;
36355;SDS011;22384;54.302;18.596;2023-07-20T00:13:38;3.28;;;2.00;;
36355;SDS011;22384;54.302;18.596;2023-07-20T00:16:04;3.17;;;1.83;;
36355;SDS011;22384;54.302;18.596;2023-07-20T00:18:30;5.32;;;2.13;;
36355;SDS011;22384;54.302;18.596;2023-07-20T00:20:57;3.92;;;1.80;;
36355;SDS011;22384;54.302;18.596;2023-07-20T00:23:25;6.28;;;1.75;;
36355;SDS011;22384;54.302;18.596;2023-07-20T00:25:51;4.85;;;1.90;;
36355;SDS011;22384;54.302;18.596;2023-07-20T00:28:17;4.50;;;2.20;;
36355;SDS011;22384;54.302;18.596;2023-07-20T00:30:43;5.28;;;1.95;;
36355;SDS011;22384;54.302;18.596;2023-07-20T00:33:10;3.55;;;1.77;;
36355;SDS011;22384;54.302;18.596;2023-07-20T00:35:36;3.95;;;2.22;;
36355;SDS011;22384;54.302;18.596;2023-07-20T00:38:03;7.28;;;2.08;;
36355;SDS011;22384;54.302;18.596;2023-07-20T00:40:35;6.05;;;1.75;;
36355;SDS011;22384;54.302;18.596;2023-07-20T00:43:01;6.07;;;2.10;;
36355;SDS011;22384;54.302;18.596;2023-07-20T00:45:28;3.70;;;2.20;;
36355;SDS011;22384;54.302;18.596;2023-07-20T00:47:55;3.20;;;1.92;;
36355;SDS011;22384;54.302;18.596;2023-07-20T00:50:21;4.28;;;1.80;;
36355;SDS011;22384;54.302;18.596;2023-07-20T00:52:47;4.95;;;2.63;;
36355;SDS011;22384;54.302;18.596;2023-07-20T00:55:14;4.70;;;2.17;;
36355;SDS011;22384;54.302;18.596;2023-07-20T00:57:40;8.15;;;2.30;;
36355;SDS011;22384;54.302;18.596;2023-07-20T01:00:07;3.95;;;1.80;;
36355;SDS011;22384;54.302;18.596;2023-07-20T01:02:33;5.93;;;1.98;;
36355;SDS011;22384;54.302;18.596;2023-07-20T01:04:59;3.25;;;1.77;;
36355;SDS011;22384;54.302;18.596;2023-07-20T01:07:36;6.43;;;1.95;;
36355;SDS011;22384;54.302;18.596;2023-07-20T01:12:48;1.80;;;1.42;;
36355;SDS011;22384;54.302;18.596;2023-07-20T01:15:17;2.25;;;1.65;;
36355;SDS011;22384;54.302;18.596;2023-07-20T01:17:43;3.58;;;1.75;;
36355;SDS011;22384;54.302;18.596;2023-07-20T01:20:10;4.93;;;1.75;;
36355;SDS011;22384;54.302;18.596;2023-07-20T01:32:42;6.07;;;1.60;;
36355;SDS011;22384;54.302;18.596;2023-07-20T01:35:08;2.22;;;1.52;;
36355;SDS011;22384;54.302;18.596;2023-07-20T01:37:35;2.88;;;1.50;;
36355;SDS011;22384;54.302;18.596;2023-07-20T01:40:03;1.95;;;1.42;;
36355;SDS011;22384;54.302;18.596;2023-07-20T01:42:29;3.03;;;1.58;;
36355;SDS011;22384;54.302;18.596;2023-07-20T01:44:55;5.10;;;1.20;;
36355;SDS011;22384;54.302;18.596;2023-07-20T01:47:22;5.43;;;1.45;;
36355;SDS011;22384;54.302;18.596;2023-07-20T01:49:48;3.45;;;1.30;;
36355;SDS011;22384;54.302;18.596;2023-07-20T01:52:14;3.10;;;1.38;;
36355;SDS011;22384;54.302;18.596;2023-07-20T01:54:40;6.15;;;1.45;;
36355;SDS011;22384;54.302;18.596;2023-07-20T01:57:06;3.53;;;1.35;;
36355;SDS011;22384;54.302;18.596;2023-07-20T01:59:32;3.72;;;1.48;;
36355;SDS011;22384;54.302;18.596;2023-07-20T02:01:58;4.90;;;1.35;;
36355;SDS011;22384;54.302;18.596;2023-07-20T02:04:24;5.22;;;1.70;;
36355;SDS011;22384;54.302;18.596;2023-07-20T02:06:50;6.15;;;1.92;;
36355;SDS011;22384;54.302;18.596;2023-07-20T02:09:16;2.58;;;1.48;;
36355;SDS011;22384;54.302;18.596;2023-07-20T02:11:42;4.70;;;1.50;;
36355;SDS011;22384;54.302;18.596;2023-07-20T02:14:08;5.93;;;1.50;;
36355;SDS011;22384;54.302;18.596;2023-07-20T02:16:34;3.25;;;1.65;;
36355;SDS011;22384;54.302;18.596;2023-07-20T02:19:01;1.63;;;1.40;;
36355;SDS011;22384;54.302;18.596;2023-07-20T02:21:27;3.60;;;1.77;;
36355;SDS011;22384;54.302;18.596;2023-07-20T02:23:53;4.18;;;1.70;;
36355;SDS011;22384;54.302;18.596;2023-07-20T02:26:19;1.95;;;1.42;;
36355;SDS011;22384;54.302;18.596;2023-07-20T02:28:45;1.85;;;1.42;;
36355;SDS011;22384;54.302;18.596;2023-07-20T02:31:11;5.90;;;1.65;;
36355;SDS011;22384;54.302;18.596;2023-07-20T02:33:37;2.08;;;1.58;;
36355;SDS011;22384;54.302;18.596;2023-07-20T02:36:03;3.90;;;1.63;;
36355;SDS011;22384;54.302;18.596;2023-07-20T02:38:29;2.50;;;1.38;;
36355;SDS011;22384;54.302;18.596;2023-07-20T02:40:55;3.33;;;1.40;;
36355;SDS011;22384;54.302;18.596;2023-07-20T02:43:21;3.95;;;1.30;;
36355;SDS011;22384;54.302;18.596;2023-07-20T02:45:47;4.78;;;1.23;;
36355;SDS011;22384;54.302;18.596;2023-07-20T02:48:13;4.03;;;1.83;;
36355;SDS011;22384;54.302;18.596;2023-07-20T02:50:39;6.22;;;1.58;;
36355;SDS011;22384;54.302;18.596;2023-07-20T02:53:05;2.13;;;1.25;;
36355;SDS011;22384;54.302;18.596;2023-07-20T02:55:31;2.78;;;1.50;;
36355;SDS011;22384;54.302;18.596;2023-07-20T02:57:57;1.95;;;1.58;;
36355;SDS011;22384;54.302;18.596;2023-07-20T03:00:24;3.75;;;1.50;;
36355;SDS011;22384;54.302;18.596;2023-07-20T03:02:51;6.05;;;1.27;;
36355;SDS011;22384;54.302;18.596;2023-07-20T03:05:20;3.63;;;1.80;;
36355;SDS011;22384;54.302;18.596;2023-07-20T03:07:47;2.38;;;1.60;;
36355;SDS011;22384;54.302;18.596;2023-07-20T03:10:13;2.92;;;1.60;;
36355;SDS011;22384;54.302;18.596;2023-07-20T03:12:39;3.15;;;1.40;;
36355;SDS011;22384;54.302;18.596;2023-07-20T03:15:05;2.50;;;1.50;;
36355;SDS011;22384;54.302;18.596;2023-07-20T03:17:31;2.25;;;1.67;;
36355;SDS011;22384;54.302;18.596;2023-07-20T03:19:57;3.40;;;1.20;;
36355;SDS011;22384;54.302;18.596;2023-07-20T03:22:24;4.38;;;1.50;;
36355;SDS011;22384;54.302;18.596;2023-07-20T03:24:51;3.17;;;1.70;;
36355;SDS011;22384;54.302;18.596;2023-07-20T03:27:17;1.95;;;1.25;;
36355;SDS011;22384;54.302;18.596;2023-07-20T03:29:43;5.43;;;1.40;;
36355;SDS011;22384;54.302;18.596;2023-07-20T03:32:10;2.08;;;1.20;;
36355;SDS011;22384;54.302;18.596;2023-07-20T03:34:36;3.65;;;1.48;;
36355;SDS011;22384;54.302;18.596;2023-07-20T03:37:02;1.77;;;1.27;;
36355;SDS011;22384;54.302;18.596;2023-07-20T03:39:29;5.53;;;1.25;;
36355;SDS011;22384;54.302;18.596;2023-07-20T03:41:57;4.43;;;1.35;;
36355;SDS011;22384;54.302;18.596;2023-07-20T03:44:23;5.15;;;1.83;;
36355;SDS011;22384;54.302;18.596;2023-07-20T03:46:49;6.78;;;1.50;;
36355;SDS011;22384;54.302;18.596;2023-07-20T03:49:15;4.13;;;1.52;;
36355;SDS011;22384;54.302;18.596;2023-07-20T03:51:41;2.92;;;1.48;;
36355;SDS011;22384;54.302;18.596;2023-07-20T03:54:07;5.38;;;1.58;;
36355;SDS011;22384;54.302;18.596;2023-07-20T03:56:33;1.40;;;1.13;;
36355;SDS011;22384;54.302;18.596;2023-07-20T03:59:00;1.55;;;1.30;;
36355;SDS011;22384;54.302;18.596;2023-07-20T04:01:26;2.13;;;1.48;;
36355;SDS011;22384;54.302;18.596;2023-07-20T04:03:52;4.18;;;1.65;;
36355;SDS011;22384;54.302;18.596;2023-07-20T04:06:18;1.83;;;1.20;;
36355;SDS011;22384;54.302;18.596;2023-07-20T04:08:44;4.38;;;1.67;;
36355;SDS011;22384;54.302;18.596;2023-07-20T04:11:12;3.42;;;1.40;;
36355;SDS011;22384;54.302;18.596;2023-07-20T04:13:38;5.40;;;1.55;;
36355;SDS011;22384;54.302;18.596;2023-07-20T04:16:04;4.03;;;1.60;;
36355;SDS011;22384;54.302;18.596;2023-07-20T04:18:30;5.10;;;1.98;;
36355;SDS011;22384;54.302;18.596;2023-07-20T04:20:57;3.85;;;1.50;;
36355;SDS011;22384;54.302;18.596;2023-07-20T04:23:23;5.05;;;1.40;;
36355;SDS011;22384;54.302;18.596;2023-07-20T04:25:49;2.58;;;1.20;;
36355;SDS011;22384;54.302;18.596;2023-07-20T04:28:15;6.43;;;1.23;;
36355;SDS011;22384;54.302;18.596;2023-07-20T04:30:41;4.00;;;1.30;;
36355;SDS011;22384;54.302;18.596;2023-07-20T04:33:07;6.80;;;1.77;;
36355;SDS011;22384;54.302;18.596;2023-07-20T04:38:11;2.88;;;1.20;;
36355;SDS011;22384;54.302;18.596;2023-07-20T04:40:37;3.28;;;1.30;;
36355;SDS011;22384;54.302;18.596;2023-07-20T04:43:03;4.03;;;1.40;;
36355;SDS011;22384;54.302;18.596;2023-07-20T04:45:29;2.92;;;1.30;;
36355;SDS011;22384;54.302;18.596;2023-07-20T04:47:55;6.30;;;1.40;;
36355;SDS011;22384;54.302;18.596;2023-07-20T04:50:22;6.07;;;1.42;;
36355;SDS011;22384;54.302;18.596;2023-07-20T04:52:50;6.57;;;1.70;;
36355;SDS011;22384;54.302;18.596;2023-07-20T04:55:16;4.32;;;1.38;;
36355;SDS011;22384;54.302;18.596;2023-07-20T04:57:42;2.13;;;1.30;;
36355;SDS011;22384;54.302;18.596;2023-07-20T05:00:08;4.22;;;1.48;;
36355;SDS011;22384;54.302;18.596;2023-07-20T05:02:36;2.50;;;1.40;;
36355;SDS011;22384;54.302;18.596;2023-07-20T05:05:03;5.05;;;1.60;;
36355;SDS011;22384;54.302;18.596;2023-07-20T05:07:31;2.75;;;1.40;;
36355;SDS011;22384;54.302;18.596;2023-07-20T05:09:57;5.40;;;1.45;;
36355;SDS011;22384;54.302;18.596;2023-07-20T05:12:23;4.78;;;1.60;;
36355;SDS011;22384;54.302;18.596;2023-07-20T05:14:49;2.08;;;1.65;;
36355;SDS011;22384;54.302;18.596;2023-07-20T05:17:15;6.47;;;1.70;;
36355;SDS011;22384;54.302;18.596;2023-07-20T05:19:41;3.50;;;1.65;;
36355;SDS011;22384;54.302;18.596;2023-07-20T05:22:07;5.90;;;1.85;;
36355;SDS011;22384;54.302;18.596;2023-07-20T05:24:33;4.05;;;1.80;;
36355;SDS011;22384;54.302;18.596;2023-07-20T05:26:59;3.10;;;1.95;;
36355;SDS011;22384;54.302;18.596;2023-07-20T05:29:25;5.53;;;2.47;;
36355;SDS011;22384;54.302;18.596;2023-07-20T05:31:51;2.65;;;1.55;;
36355;SDS011;22384;54.302;18.596;2023-07-20T05:34:17;3.75;;;2.05;;
36355;SDS011;22384;54.302;18.596;2023-07-20T05:36:43;6.30;;;2.05;;
36355;SDS011;22384;54.302;18.596;2023-07-20T05:39:09;2.88;;;1.63;;
36355;SDS011;22384;54.302;18.596;2023-07-20T05:41:35;7.90;;;1.80;;
36355;SDS011;22384;54.302;18.596;2023-07-20T05:44:01;4.38;;;1.65;;
36355;SDS011;22384;54.302;18.596;2023-07-20T05:46:27;5.50;;;1.73;;
36355;SDS011;22384;54.302;18.596;2023-07-20T05:48:53;5.00;;;1.65;;
36355;SDS011;22384;54.302;18.596;2023-07-20T05:51:19;9.60;;;1.90;;
36355;SDS011;22384;54.302;18.596;2023-07-20T05:53:45;2.25;;;1.52;;
36355;SDS011;22384;54.302;18.596;2023-07-20T05:56:11;5.50;;;1.58;;
36355;SDS011;22384;54.302;18.596;2023-07-20T05:58:37;7.32;;;1.80;;
36355;SDS011;22384;54.302;18.596;2023-07-20T06:01:03;3.35;;;1.73;;
36355;SDS011;22384;54.302;18.596;2023-07-20T06:03:31;6.93;;;1.90;;
36355;SDS011;22384;54.302;18.596;2023-07-20T06:05:59;7.68;;;1.80;;
36355;SDS011;22384;54.302;18.596;2023-07-20T06:08:27;7.43;;;1.40;;
36355;SDS011;22384;54.302;18.596;2023-07-20T06:10:53;2.60;;;1.35;;
36355;SDS011;22384;54.302;18.596;2023-07-20T06:13:19;4.00;;;1.50;;
36355;SDS011;22384;54.302;18.596;2023-07-20T06:15:45;5.43;;;1.50;;
36355;SDS011;22384;54.302;18.596;2023-07-20T06:18:12;3.22;;;1.63;;
36355;SDS011;22384;54.302;18.596;2023-07-20T06:20:38;6.70;;;2.20;;
36355;SDS011;22384;54.302;18.596;2023-07-20T06:23:04;1.95;;;1.50;;
36355;SDS011;22384;54.302;18.596;2023-07-20T06:25:30;3.08;;;1.30;;
36355;SDS011;22384;54.302;18.596;2023-07-20T06:27:56;2.33;;;1.40;;
36355;SDS011;22384;54.302;18.596;2023-07-20T06:30:22;3.80;;;1.35;;
36355;SDS011;22384;54.302;18.596;2023-07-20T06:32:48;3.50;;;1.30;;
36355;SDS011;22384;54.302;18.596;2023-07-20T06:35:15;3.55;;;1.20;;
36355;SDS011;22384;54.302;18.596;2023-07-20T06:37:42;3.83;;;1.25;;
36355;SDS011;22384;54.302;18.596;2023-07-20T06:40:08;6.35;;;1.50;;
36355;SDS011;22384;54.302;18.596;2023-07-20T06:42:34;6.65;;;1.80;;
36355;SDS011;22384;54.302;18.596;2023-07-20T06:45:00;3.33;;;1.30;;
36355;SDS011;22384;54.302;18.596;2023-07-20T06:47:26;2.50;;;1.67;;
36355;SDS011;22384;54.302;18.596;2023-07-20T06:49:52;2.80;;;1.60;;
36355;SDS011;22384;54.302;18.596;2023-07-20T06:52:18;2.95;;;1.60;;
36355;SDS011;22384;54.302;18.596;2023-07-20T06:54:44;4.85;;;1.40;;
36355;SDS011;22384;54.302;18.596;2023-07-20T06:57:10;3.50;;;1.38;;
36355;SDS011;22384;54.302;18.596;2023-07-20T06:59:36;4.78;;;1.40;;
36355;SDS011;22384;54.302;18.596;2023-07-20T07:02:03;5.65;;;1.33;;
36355;SDS011;22384;54.302;18.596;2023-07-20T07:04:29;9.90;;;2.20;;
36355;SDS011;22384;54.302;18.596;2023-07-20T07:06:55;4.68;;;1.35;;
36355;SDS011;22384;54.302;18.596;2023-07-20T07:09:21;4.32;;;0.93;;
36355;SDS011;22384;54.302;18.596;2023-07-20T07:11:47;3.17;;;0.93;;
36355;SDS011;22384;54.302;18.596;2023-07-20T07:14:13;2.22;;;0.90;;
36355;SDS011;22384;54.302;18.596;2023-07-20T07:16:39;2.30;;;1.00;;
36355;SDS011;22384;54.302;18.596;2023-07-20T07:19:05;2.35;;;0.90;;
36355;SDS011;22384;54.302;18.596;2023-07-20T07:21:33;1.55;;;0.63;;
36355;SDS011;22384;54.302;18.596;2023-07-20T07:23:59;1.23;;;0.82;;
36355;SDS011;22384;54.302;18.596;2023-07-20T07:26:25;6.80;;;1.20;;
36355;SDS011;22384;54.302;18.596;2023-07-20T07:28:51;2.05;;;1.10;;
36355;SDS011;22384;54.302;18.596;2023-07-20T07:31:17;5.55;;;1.17;;
36355;SDS011;22384;54.302;18.596;2023-07-20T07:33:43;0.82;;;0.52;;
36355;SDS011;22384;54.302;18.596;2023-07-20T07:36:09;2.70;;;0.85;;
36355;SDS011;22384;54.302;18.596;2023-07-20T07:38:35;3.20;;;1.02;;
36355;SDS011;22384;54.302;18.596;2023-07-20T07:41:02;3.15;;;0.77;;
36355;SDS011;22384;54.302;18.596;2023-07-20T07:43:28;3.65;;;0.80;;
36355;SDS011;22384;54.302;18.596;2023-07-20T07:45:54;2.17;;;0.77;;
36355;SDS011;22384;54.302;18.596;2023-07-20T07:48:20;1.38;;;0.90;;
36355;SDS011;22384;54.302;18.596;2023-07-20T07:50:47;1.42;;;0.70;;
36355;SDS011;22384;54.302;18.596;2023-07-20T07:53:15;1.98;;;0.75;;
36355;SDS011;22384;54.302;18.596;2023-07-20T07:55:43;0.75;;;0.75;;
36355;SDS011;22384;54.302;18.596;2023-07-20T07:58:16;1.23;;;0.90;;
36355;SDS011;22384;54.302;18.596;2023-07-20T08:00:42;2.63;;;1.58;;
36355;SDS011;22384;54.302;18.596;2023-07-20T08:03:09;4.05;;;1.20;;
36355;SDS011;22384;54.302;18.596;2023-07-20T08:05:35;3.40;;;1.23;;
36355;SDS011;22384;54.302;18.596;2023-07-20T08:08:02;2.53;;;0.80;;
36355;SDS011;22384;54.302;18.596;2023-07-20T08:10:31;3.70;;;0.95;;
36355;SDS011;22384;54.302;18.596;2023-07-20T08:12:57;6.40;;;1.00;;
36355;SDS011;22384;54.302;18.596;2023-07-20T08:15:23;1.95;;;0.77;;
36355;SDS011;22384;54.302;18.596;2023-07-20T08:17:49;4.57;;;1.05;;
36355;SDS011;22384;54.302;18.596;2023-07-20T08:20:16;2.53;;;0.80;;
36355;SDS011;22384;54.302;18.596;2023-07-20T08:22:43;1.95;;;0.98;;
36355;SDS011;22384;54.302;18.596;2023-07-20T08:25:09;1.35;;;0.70;;
36355;SDS011;22384;54.302;18.596;2023-07-20T08:27:35;2.38;;;0.82;;
36355;SDS011;22384;54.302;18.596;2023-07-20T08:30:02;0.95;;;0.68;;
36355;SDS011;22384;54.302;18.596;2023-07-20T08:32:29;1.00;;;0.60;;
36355;SDS011;22384;54.302;18.596;2023-07-20T08:34:55;1.00;;;0.68;;
36355;SDS011;22384;54.302;18.596;2023-07-20T08:37:22;1.95;;;1.13;;
36355;SDS011;22384;54.302;18.596;2023-07-20T08:39:48;0.77;;;0.52;;
36355;SDS011;22384;54.302;18.596;2023-07-20T08:42:14;9.73;;;0.60;;
36355;SDS011;22384;54.302;18.596;2023-07-20T08:44:41;0.55;;;0.55;;
36355;SDS011;22384;54.302;18.596;2023-07-20T08:47:09;2.55;;;0.80;;
36355;SDS011;22384;54.302;18.596;2023-07-20T08:49:36;3.42;;;0.50;;
36355;SDS011;22384;54.302;18.596;2023-07-20T08:52:04;1.55;;;0.70;;
36355;SDS011;22384;54.302;18.596;2023-07-20T08:54:31;1.67;;;0.45;;
36355;SDS011;22384;54.302;18.596;2023-07-20T08:57:04;0.93;;;0.60;;
36355;SDS011;22384;54.302;18.596;2023-07-20T08:59:30;1.08;;;0.50;;
36355;SDS011;22384;54.302;18.596;2023-07-20T09:01:57;1.80;;;0.70;;
36355;SDS011;22384;54.302;18.596;2023-07-20T09:04:24;2.30;;;0.47;;
36355;SDS011;22384;54.302;18.596;2023-07-20T09:06:50;0.40;;;0.40;;
36355;SDS011;22384;54.302;18.596;2023-07-20T09:09:17;1.08;;;0.55;;
36355;SDS011;22384;54.302;18.596;2023-07-20T09:11:43;0.40;;;0.38;;
36355;SDS011;22384;54.302;18.596;2023-07-20T09:14:09;1.98;;;0.52;;
36355;SDS011;22384;54.302;18.596;2023-07-20T09:19:14;2.83;;;0.70;;
36355;SDS011;22384;54.302;18.596;2023-07-20T09:21:43;1.85;;;0.50;;
36355;SDS011;22384;54.302;18.596;2023-07-20T09:24:09;0.90;;;0.40;;
36355;SDS011;22384;54.302;18.596;2023-07-20T09:26:40;1.80;;;0.60;;
36355;SDS011;22384;54.302;18.596;2023-07-20T09:29:07;2.30;;;0.55;;
36355;SDS011;22384;54.302;18.596;2023-07-20T09:31:35;0.38;;;0.28;;
36355;SDS011;22384;54.302;18.596;2023-07-20T09:34:01;3.28;;;0.50;;
36355;SDS011;22384;54.302;18.596;2023-07-20T09:36:28;2.92;;;0.50;;
36355;SDS011;22384;54.302;18.596;2023-07-20T09:38:54;1.98;;;0.50;;
36355;SDS011;22384;54.302;18.596;2023-07-20T09:41:20;3.45;;;0.82;;
36355;SDS011;22384;54.302;18.596;2023-07-20T09:43:47;1.63;;;0.55;;
36355;SDS011;22384;54.302;18.596;2023-07-20T09:46:13;2.08;;;0.57;;
36355;SDS011;22384;54.302;18.596;2023-07-20T09:48:42;2.55;;;0.77;;
36355;SDS011;22384;54.302;18.596;2023-07-20T09:51:18;0.73;;;0.45;;
36355;SDS011;22384;54.302;18.596;2023-07-20T09:53:45;0.40;;;0.40;;
36355;SDS011;22384;54.302;18.596;2023-07-20T09:56:12;0.60;;;0.47;;
36355;SDS011;22384;54.302;18.596;2023-07-20T09:58:40;0.75;;;0.57;;
36355;SDS011;22384;54.302;18.596;2023-07-20T10:01:06;2.95;;;0.90;;
36355;SDS011;22384;54.302;18.596;2023-07-20T10:03:32;2.72;;;0.57;;
36355;SDS011;22384;54.302;18.596;2023-07-20T10:06:02;2.03;;;0.80;;
36355;SDS011;22384;54.302;18.596;2023-07-20T10:08:29;2.88;;;0.50;;
36355;SDS011;22384;54.302;18.596;2023-07-20T10:10:57;3.20;;;0.60;;
36355;SDS011;22384;54.302;18.596;2023-07-20T10:13:26;1.98;;;0.60;;
36355;SDS011;22384;54.302;18.596;2023-07-20T10:16:03;2.83;;;1.08;;
36355;SDS011;22384;54.302;18.596;2023-07-20T10:18:31;1.73;;;0.55;;
36355;SDS011;22384;54.302;18.596;2023-07-20T10:20:59;1.65;;;0.60;;
36355;SDS011;22384;54.302;18.596;2023-07-20T10:23:25;2.03;;;0.80;;
36355;SDS011;22384;54.302;18.596;2023-07-20T10:25:52;1.33;;;0.50;;
36355;SDS011;22384;54.302;18.596;2023-07-20T10:28:19;2.35;;;0.32;;
36355;SDS011;22384;54.302;18.596;2023-07-20T10:30:52;0.40;;;0.40;;
36355;SDS011;22384;54.302;18.596;2023-07-20T10:33:18;0.88;;;0.38;;
36355;SDS011;22384;54.302;18.596;2023-07-20T10:38:55;1.23;;;0.60;;
36355;SDS011;22384;54.302;18.596;2023-07-20T10:43:51;0.55;;;0.50;;
36355;SDS011;22384;54.302;18.596;2023-07-20T10:49:04;1.85;;;0.80;;
36355;SDS011;22384;54.302;18.596;2023-07-20T10:51:38;1.17;;;0.80;;
36355;SDS011;22384;54.302;18.596;2023-07-20T10:54:07;1.25;;;1.00;;
36355;SDS011;22384;54.302;18.596;2023-07-20T10:56:33;2.28;;;0.57;;
36355;SDS011;22384;54.302;18.596;2023-07-20T10:59:00;0.90;;;0.47;;
36355;SDS011;22384;54.302;18.596;2023-07-20T11:01:29;2.75;;;0.50;;
36355;SDS011;22384;54.302;18.596;2023-07-20T11:03:58;0.60;;;0.50;;
36355;SDS011;22384;54.302;18.596;2023-07-20T11:11:26;2.70;;;0.50;;
36355;SDS011;22384;54.302;18.596;2023-07-20T11:16:19;2.78;;;0.50;;
36355;SDS011;22384;54.302;18.596;2023-07-20T11:18:57;4.20;;;0.68;;
36355;SDS011;22384;54.302;18.596;2023-07-20T11:21:23;2.92;;;0.57;;
36355;SDS011;22384;54.302;18.596;2023-07-20T11:23:49;2.92;;;0.50;;
36355;SDS011;22384;54.302;18.596;2023-07-20T11:26:16;1.35;;;0.47;;
36355;SDS011;22384;54.302;18.596;2023-07-20T11:28:48;2.78;;;0.57;;
36355;SDS011;22384;54.302;18.596;2023-07-20T11:31:14;1.70;;;0.82;;
36355;SDS011;22384;54.302;18.596;2023-07-20T11:33:43;2.00;;;1.00;;
36355;SDS011;22384;54.302;18.596;2023-07-20T11:36:09;1.73;;;0.95;;
36355;SDS011;22384;54.302;18.596;2023-07-20T11:38:35;1.40;;;0.80;;
36355;SDS011;22384;54.302;18.596;2023-07-20T11:41:04;2.38;;;0.77;;
36355;SDS011;22384;54.302;18.596;2023-07-20T11:43:30;2.55;;;0.75;;
36355;SDS011;22384;54.302;18.596;2023-07-20T11:45:56;1.38;;;0.50;;
36355;SDS011;22384;54.302;18.596;2023-07-20T11:48:23;3.38;;;0.93;;
36355;SDS011;22384;54.302;18.596;2023-07-20T11:50:49;0.63;;;0.57;;
36355;SDS011;22384;54.302;18.596;2023-07-20T11:53:15;0.95;;;0.63;;
36355;SDS011;22384;54.302;18.596;2023-07-20T11:55:41;1.35;;;0.73;;
36355;SDS011;22384;54.302;18.596;2023-07-20T11:58:08;1.35;;;0.60;;
36355;SDS011;22384;54.302;18.596;2023-07-20T12:00:35;3.58;;;0.85;;
36355;SDS011;22384;54.302;18.596;2023-07-20T12:03:01;2.28;;;0.90;;
36355;SDS011;22384;54.302;18.596;2023-07-20T12:05:31;0.57;;;0.40;;
36355;SDS011;22384;54.302;18.596;2023-07-20T12:07:57;0.20;;;0.20;;
36355;SDS011;22384;54.302;18.596;2023-07-20T12:10:24;0.45;;;0.40;;
36355;SDS011;22384;54.302;18.596;2023-07-20T12:12:51;0.30;;;0.30;;
36355;SDS011;22384;54.302;18.596;2023-07-20T12:17:44;0.30;;;0.30;;
36355;SDS011;22384;54.302;18.596;2023-07-20T12:20:10;0.30;;;0.30;;
36355;SDS011;22384;54.302;18.596;2023-07-20T12:22:40;2.35;;;0.50;;
36355;SDS011;22384;54.302;18.596;2023-07-20T12:25:06;0.70;;;0.38;;
36355;SDS011;22384;54.302;18.596;2023-07-20T12:27:35;0.22;;;0.22;;
36355;SDS011;22384;54.302;18.596;2023-07-20T12:30:01;1.10;;;0.40;;
36355;SDS011;22384;54.302;18.596;2023-07-20T12:32:29;0.57;;;0.40;;
36355;SDS011;22384;54.302;18.596;2023-07-20T12:34:55;0.93;;;0.50;;
36355;SDS011;22384;54.302;18.596;2023-07-20T12:37:21;1.58;;;0.40;;
36355;SDS011;22384;54.302;18.596;2023-07-20T12:39:47;0.30;;;0.20;;
36355;SDS011;22384;54.302;18.596;2023-07-20T12:42:13;2.78;;;0.35;;
36355;SDS011;22384;54.302;18.596;2023-07-20T12:44:41;1.05;;;0.30;;
36355;SDS011;22384;54.302;18.596;2023-07-20T12:47:07;0.30;;;0.22;;
36355;SDS011;22384;54.302;18.596;2023-07-20T12:49:33;1.65;;;0.20;;
36355;SDS011;22384;54.302;18.596;2023-07-20T12:51:59;0.50;;;0.40;;
36355;SDS011;22384;54.302;18.596;2023-07-20T12:54:25;0.45;;;0.30;;
36355;SDS011;22384;54.302;18.596;2023-07-20T12:56:51;0.20;;;0.20;;
36355;SDS011;22384;54.302;18.596;2023-07-20T12:59:17;0.65;;;0.40;;
36355;SDS011;22384;54.302;18.596;2023-07-20T13:01:44;0.50;;;0.50;;
36355;SDS011;22384;54.302;18.596;2023-07-20T13:04:10;0.65;;;0.40;;
36355;SDS011;22384;54.302;18.596;2023-07-20T13:06:36;0.95;;;0.40;;
36355;SDS011;22384;54.302;18.596;2023-07-20T13:09:02;0.88;;;0.50;;
36355;SDS011;22384;54.302;18.596;2023-07-20T13:11:29;0.98;;;0.50;;
36355;SDS011;22384;54.302;18.596;2023-07-20T13:13:55;0.38;;;0.35;;
36355;SDS011;22384;54.302;18.596;2023-07-20T13:16:21;1.77;;;0.40;;
36355;SDS011;22384;54.302;18.596;2023-07-20T13:18:48;0.77;;;0.40;;
36355;SDS011;22384;54.302;18.596;2023-07-20T13:21:14;1.58;;;0.50;;
36355;SDS011;22384;54.302;18.596;2023-07-20T13:23:40;0.70;;;0.70;;
36355;SDS011;22384;54.302;18.596;2023-07-20T13:26:06;0.88;;;0.50;;
36355;SDS011;22384;54.302;18.596;2023-07-20T13:28:33;0.45;;;0.32;;
36355;SDS011;22384;54.302;18.596;2023-07-20T13:30:59;1.33;;;0.98;;
36355;SDS011;22384;54.302;18.596;2023-07-20T13:33:25;0.50;;;0.40;;
36355;SDS011;22384;54.302;18.596;2023-07-20T13:35:51;0.20;;;0.20;;
36355;SDS011;22384;54.302;18.596;2023-07-20T13:38:17;0.85;;;0.50;;
36355;SDS011;22384;54.302;18.596;2023-07-20T13:40:43;0.35;;;0.35;;
36355;SDS011;22384;54.302;18.596;2023-07-20T13:43:09;2.72;;;0.32;;
36355;SDS011;22384;54.302;18.596;2023-07-20T13:45:36;4.47;;;0.40;;
36355;SDS011;22384;54.302;18.596;2023-07-20T13:48:02;2.28;;;0.40;;
36355;SDS011;22384;54.302;18.596;2023-07-20T13:50:28;3.05;;;0.50;;
36355;SDS011;22384;54.302;18.596;2023-07-20T13:52:54;4.03;;;0.88;;
36355;SDS011;22384;54.302;18.596;2023-07-20T13:55:20;3.58;;;0.45;;
36355;SDS011;22384;54.302;18.596;2023-07-20T13:57:47;0.40;;;0.40;;
36355;SDS011;22384;54.302;18.596;2023-07-20T14:00:13;1.00;;;0.30;;
36355;SDS011;22384;54.302;18.596;2023-07-20T14:02:39;0.50;;;0.50;;
36355;SDS011;22384;54.302;18.596;2023-07-20T14:05:06;0.70;;;0.30;;
36355;SDS011;22384;54.302;18.596;2023-07-20T14:07:32;0.20;;;0.20;;
36355;SDS011;22384;54.302;18.596;2023-07-20T14:09:58;1.65;;;0.43;;
36355;SDS011;22384;54.302;18.596;2023-07-20T14:12:24;0.88;;;0.47;;
36355;SDS011;22384;54.302;18.596;2023-07-20T14:14:50;1.90;;;0.50;;
36355;SDS011;22384;54.302;18.596;2023-07-20T14:17:16;0.30;;;0.30;;
36355;SDS011;22384;54.302;18.596;2023-07-20T14:19:42;5.50;;;0.80;;
36355;SDS011;22384;54.302;18.596;2023-07-20T14:22:08;1.27;;;0.57;;
36355;SDS011;22384;54.302;18.596;2023-07-20T14:24:34;1.23;;;0.45;;
36355;SDS011;22384;54.302;18.596;2023-07-20T14:27:00;1.75;;;0.63;;
36355;SDS011;22384;54.302;18.596;2023-07-20T14:29:27;2.08;;;0.68;;
36355;SDS011;22384;54.302;18.596;2023-07-20T14:31:56;0.75;;;0.65;;
36355;SDS011;22384;54.302;18.596;2023-07-20T14:34:22;2.63;;;0.43;;
36355;SDS011;22384;54.302;18.596;2023-07-20T14:36:48;1.85;;;0.30;;
36355;SDS011;22384;54.302;18.596;2023-07-20T14:39:15;1.15;;;0.52;;
36355;SDS011;22384;54.302;18.596;2023-07-20T14:41:41;1.95;;;0.57;;
36355;SDS011;22384;54.302;18.596;2023-07-20T14:44:07;6.28;;;1.38;;
36355;SDS011;22384;54.302;18.596;2023-07-20T14:46:35;0.98;;;0.50;;
36355;SDS011;22384;54.302;18.596;2023-07-20T14:49:01;1.77;;;0.40;;
36355;SDS011;22384;54.302;18.596;2023-07-20T14:51:27;0.25;;;0.25;;
36355;SDS011;22384;54.302;18.596;2023-07-20T14:53:58;0.85;;;0.55;;
36355;SDS011;22384;54.302;18.596;2023-07-20T14:56:26;0.82;;;0.50;;
36355;SDS011;22384;54.302;18.596;2023-07-20T14:58:52;1.17;;;0.55;;
36355;SDS011;22384;54.302;18.596;2023-07-20T15:01:18;1.55;;;0.60;;
36355;SDS011;22384;54.302;18.596;2023-07-20T15:03:44;2.28;;;0.60;;
36355;SDS011;22384;54.302;18.596;2023-07-20T15:06:10;2.05;;;0.63;;